createdAt,value
2022-09-11T00:00:17.211Z,14.48
2022-09-11T00:01:17.182Z,14.43
2022-09-11T00:02:17.226Z,14.43
2022-09-11T00:03:17.150Z,14.41
2022-09-11T00:04:17.180Z,14.37
2022-09-11T00:05:18.725Z,14.36
2022-09-11T00:06:28.473Z,14.33
2022-09-11T00:07:17.155Z,14.33
2022-09-11T00:08:17.086Z,14.30
2022-09-11T00:09:17.092Z,14.26
2022-09-11T00:10:17.173Z,14.23
2022-09-11T00:11:17.095Z,14.23
2022-09-11T00:12:17.065Z,14.22
2022-09-11T00:13:17.033Z,14.20
2022-09-11T00:14:17.052Z,14.20
2022-09-11T00:15:17.012Z,14.16
2022-09-11T00:16:17.232Z,14.16
2022-09-11T00:17:17.005Z,14.18
2022-09-11T00:18:16.988Z,14.16
2022-09-11T00:19:16.981Z,14.12
2022-09-11T00:20:16.984Z,14.07
2022-09-11T00:21:16.971Z,14.04
2022-09-11T00:22:17.007Z,14.01
2022-09-11T00:23:16.929Z,14.00
2022-09-11T00:24:16.926Z,13.97
2022-09-11T00:25:16.905Z,13.94
2022-09-11T00:26:16.901Z,13.95
2022-09-11T00:27:16.876Z,14.00
2022-09-11T00:28:16.940Z,14.01
2022-09-11T00:29:16.871Z,14.05
2022-09-11T00:30:16.859Z,14.08
2022-09-11T00:31:16.913Z,14.13
2022-09-11T00:32:16.838Z,14.11
2022-09-11T00:33:16.819Z,14.07
2022-09-11T00:34:16.855Z,14.08
2022-09-11T00:35:16.849Z,14.08
2022-09-11T00:36:16.776Z,14.08
2022-09-11T00:37:16.772Z,14.07
2022-09-11T00:38:17.507Z,14.05
2022-09-11T00:39:16.785Z,14.04
2022-09-11T00:40:16.798Z,14.01
2022-09-11T00:41:16.720Z,13.98
2022-09-11T00:42:16.776Z,13.95
2022-09-11T00:43:16.784Z,13.94
2022-09-11T00:44:16.698Z,13.94
2022-09-11T00:45:16.676Z,13.93
2022-09-11T00:46:16.725Z,13.91
2022-09-11T00:47:16.683Z,13.87
2022-09-11T00:48:16.639Z,13.85
2022-09-11T00:49:16.659Z,13.82
2022-09-11T00:50:18.899Z,13.78
2022-09-11T00:51:16.616Z,13.68
2022-09-11T00:52:16.633Z,13.64
2022-09-11T00:53:16.593Z,13.58
2022-09-11T00:54:16.648Z,13.52
2022-09-11T00:55:16.571Z,13.46
2022-09-11T00:56:16.561Z,13.40
2022-09-11T00:57:16.543Z,13.37
2022-09-11T00:58:16.610Z,13.36
2022-09-11T00:59:16.539Z,13.36
2022-09-11T01:00:16.561Z,13.31
2022-09-11T01:01:16.575Z,13.33
2022-09-11T01:02:16.554Z,13.31
2022-09-11T01:03:16.500Z,13.31
2022-09-11T01:04:16.662Z,13.30
2022-09-11T01:05:16.666Z,13.31
2022-09-11T01:06:16.905Z,13.33
2022-09-11T01:07:16.883Z,13.33
2022-09-11T01:08:16.532Z,13.33
2022-09-11T01:09:16.496Z,13.33
2022-09-11T01:10:16.818Z,13.33
2022-09-11T01:11:16.588Z,13.36
2022-09-11T01:12:16.454Z,13.33
2022-09-11T01:13:16.795Z,13.36
2022-09-11T01:14:16.493Z,13.39
2022-09-11T01:15:16.430Z,13.37
2022-09-11T01:16:17.159Z,13.39
2022-09-11T01:17:16.387Z,13.39
2022-09-11T01:18:16.656Z,13.37
2022-09-11T01:19:16.771Z,13.37
2022-09-11T01:20:16.651Z,13.33
2022-09-11T01:21:16.353Z,13.28
2022-09-11T01:22:16.875Z,13.28
2022-09-11T01:23:16.825Z,13.28
2022-09-11T01:24:16.250Z,13.27
2022-09-11T01:25:16.702Z,13.24
2022-09-11T01:26:16.226Z,13.20
2022-09-11T01:27:16.270Z,13.21
2022-09-11T01:28:16.461Z,13.20
2022-09-11T01:29:16.583Z,13.19
2022-09-11T01:30:16.469Z,13.17
2022-09-11T01:31:16.706Z,13.12
2022-09-11T01:32:16.569Z,13.12
2022-09-11T01:33:16.387Z,13.11
2022-09-11T01:34:16.889Z,13.11
2022-09-11T01:35:16.432Z,13.11
2022-09-11T01:36:16.492Z,13.06
2022-09-11T01:37:16.436Z,13.03
2022-09-11T01:38:16.465Z,13.05
2022-09-11T01:39:16.575Z,13.05
2022-09-11T01:40:16.418Z,13.05
2022-09-11T01:41:16.262Z,13.08
2022-09-11T01:42:16.402Z,13.09
2022-09-11T01:43:16.080Z,13.08
2022-09-11T01:44:16.511Z,13.09
2022-09-11T01:45:16.338Z,13.06
2022-09-11T01:46:16.147Z,13.11
2022-09-11T01:47:16.390Z,13.08
2022-09-11T01:48:16.297Z,13.11
2022-09-11T01:49:16.346Z,13.13
2022-09-11T01:50:16.261Z,13.19
2022-09-11T01:51:15.999Z,13.27
2022-09-11T01:52:16.327Z,13.39
2022-09-11T01:53:16.224Z,13.43
2022-09-11T01:54:16.254Z,13.49
2022-09-11T01:55:16.293Z,13.54
2022-09-11T01:56:16.125Z,13.60
2022-09-11T01:57:16.360Z,13.61
2022-09-11T01:58:16.427Z,13.65
2022-09-11T01:59:16.231Z,13.70
2022-09-11T02:00:16.205Z,13.71
2022-09-11T02:01:16.251Z,13.73
2022-09-11T02:02:16.310Z,13.79
2022-09-11T02:03:16.400Z,13.85
2022-09-11T02:04:16.317Z,13.93
2022-09-11T02:05:16.173Z,13.95
2022-09-11T02:06:16.227Z,13.97
2022-09-11T02:07:16.022Z,13.93
2022-09-11T02:08:15.989Z,13.91
2022-09-11T02:09:16.011Z,13.91
2022-09-11T02:10:15.803Z,13.87
2022-09-11T02:11:15.941Z,13.85
2022-09-11T02:12:16.067Z,13.83
2022-09-11T02:13:15.961Z,13.82
2022-09-11T02:14:15.919Z,13.82
2022-09-11T02:15:15.869Z,13.83
2022-09-11T02:16:16.141Z,13.86
2022-09-11T02:17:16.059Z,13.91
2022-09-11T02:18:15.748Z,13.97
2022-09-11T02:19:15.932Z,13.97
2022-09-11T02:20:15.985Z,13.98
2022-09-11T02:21:15.723Z,14.05
2022-09-11T02:22:16.888Z,14.15
2022-09-11T02:23:15.617Z,14.25
2022-09-11T02:24:15.779Z,14.40
2022-09-11T02:25:15.918Z,14.51
2022-09-11T02:26:15.886Z,14.59
2022-09-11T02:27:15.818Z,14.67
2022-09-11T02:28:15.915Z,14.68
2022-09-11T02:29:15.859Z,14.73
2022-09-11T02:30:16.144Z,14.77
2022-09-11T02:31:15.867Z,14.79
2022-09-11T02:32:15.977Z,14.82
2022-09-11T02:33:15.929Z,14.87
2022-09-11T02:34:15.833Z,14.90
2022-09-11T02:35:15.511Z,14.92
2022-09-11T02:36:15.638Z,14.97
2022-09-11T02:37:15.741Z,15.02
2022-09-11T02:38:15.916Z,15.05
2022-09-11T02:39:15.641Z,15.08
2022-09-11T02:40:15.803Z,15.10
2022-09-11T02:41:15.907Z,15.10
2022-09-11T02:42:15.700Z,15.11
2022-09-11T02:43:15.774Z,15.10
2022-09-11T02:44:15.400Z,15.08
2022-09-11T02:45:15.438Z,15.08
2022-09-11T02:46:15.943Z,15.07
2022-09-11T02:47:15.673Z,15.08
2022-09-11T02:48:16.761Z,15.10
2022-09-11T02:49:15.727Z,15.07
2022-09-11T02:50:15.530Z,15.04
2022-09-11T02:51:15.805Z,14.99
2022-09-11T02:52:15.493Z,14.96
2022-09-11T02:53:15.490Z,14.96
2022-09-11T02:54:15.612Z,14.93
2022-09-11T02:55:15.630Z,14.82
2022-09-11T02:56:15.704Z,14.79
2022-09-11T02:57:15.545Z,14.70
2022-09-11T02:58:15.368Z,14.70
2022-09-11T02:59:15.264Z,14.66
2022-09-11T03:00:15.520Z,14.61
2022-09-11T03:01:15.378Z,14.55
2022-09-11T03:02:15.759Z,14.45
2022-09-11T03:03:15.322Z,14.43
2022-09-11T03:04:15.387Z,14.41
2022-09-11T03:05:15.325Z,14.38
2022-09-11T03:06:15.317Z,14.36
2022-09-11T03:07:15.319Z,14.36
2022-09-11T03:08:15.350Z,14.34
2022-09-11T03:09:15.230Z,14.34
2022-09-11T03:10:15.405Z,14.38
2022-09-11T03:11:15.150Z,14.40
2022-09-11T03:12:15.090Z,14.43
2022-09-11T03:13:15.328Z,14.41
2022-09-11T03:14:15.076Z,14.43
2022-09-11T03:15:15.146Z,14.43
2022-09-11T03:16:15.216Z,14.38
2022-09-11T03:17:15.186Z,14.37
2022-09-11T03:18:15.256Z,14.38
2022-09-11T03:19:15.041Z,14.40
2022-09-11T03:20:15.239Z,14.37
2022-09-11T03:21:15.021Z,14.37
2022-09-11T03:22:15.232Z,14.37
2022-09-11T03:23:14.994Z,14.30
2022-09-11T03:24:15.236Z,14.26
2022-09-11T03:25:15.173Z,14.25
2022-09-11T03:26:15.282Z,14.22
2022-09-11T03:27:15.384Z,14.16
2022-09-11T03:28:15.389Z,14.13
2022-09-11T03:29:15.035Z,14.08
2022-09-11T03:30:15.059Z,14.07
2022-09-11T03:31:15.097Z,14.03
2022-09-11T03:32:15.259Z,14.05
2022-09-11T03:33:15.294Z,14.04
2022-09-11T03:34:15.221Z,14.07
2022-09-11T03:35:15.246Z,14.12
2022-09-11T03:36:15.179Z,14.15
2022-09-11T03:37:16.957Z,14.16
2022-09-11T03:38:15.282Z,14.19
2022-09-11T03:39:15.063Z,14.26
2022-09-11T03:40:15.287Z,14.26
2022-09-11T03:41:15.037Z,14.18
2022-09-11T03:42:15.052Z,14.15
2022-09-11T03:43:14.961Z,14.16
2022-09-11T03:44:14.750Z,14.08
2022-09-11T03:45:15.924Z,14.04
2022-09-11T03:46:15.195Z,14.01
2022-09-11T03:47:15.043Z,13.91
2022-09-11T03:48:14.842Z,13.86
2022-09-11T03:49:14.834Z,13.82
2022-09-11T03:50:14.897Z,13.78
2022-09-11T03:51:14.948Z,13.70
2022-09-11T03:52:15.175Z,13.65
2022-09-11T03:53:14.966Z,13.62
2022-09-11T03:54:14.773Z,13.62
2022-09-11T03:55:14.920Z,13.67
2022-09-11T03:56:14.987Z,13.73
2022-09-11T03:57:14.999Z,13.79
2022-09-11T03:58:15.123Z,13.76
2022-09-11T03:59:14.843Z,13.70
2022-09-11T04:00:14.742Z,13.64
2022-09-11T04:01:15.120Z,13.58
2022-09-11T04:02:14.768Z,13.54
2022-09-11T04:03:14.975Z,13.50
2022-09-11T04:04:15.229Z,13.47
2022-09-11T04:05:14.798Z,13.43
2022-09-11T04:06:14.639Z,13.39
2022-09-11T04:07:14.634Z,13.37
2022-09-11T04:08:14.922Z,13.36
2022-09-11T04:09:14.424Z,13.37
2022-09-11T04:10:14.857Z,13.39
2022-09-11T04:11:14.550Z,13.37
2022-09-11T04:12:14.591Z,13.33
2022-09-11T04:13:14.618Z,13.30
2022-09-11T04:14:14.479Z,13.27
2022-09-11T04:15:14.548Z,13.23
2022-09-11T04:16:14.897Z,13.20
2022-09-11T04:17:14.895Z,13.17
2022-09-11T04:18:14.587Z,13.19
2022-09-11T04:19:14.673Z,13.13
2022-09-11T04:20:14.722Z,13.11
2022-09-11T04:21:14.755Z,13.06
2022-09-11T04:22:14.857Z,13.11
2022-09-11T04:23:14.748Z,13.12
2022-09-11T04:24:14.675Z,13.17
2022-09-11T04:25:14.577Z,13.20
2022-09-11T04:26:14.591Z,13.21
2022-09-11T04:27:14.697Z,13.26
2022-09-11T04:28:14.323Z,13.28
2022-09-11T04:29:14.536Z,13.33
2022-09-11T04:30:14.477Z,13.33
2022-09-11T04:31:14.631Z,13.31
2022-09-11T04:32:14.643Z,13.28
2022-09-11T04:33:14.529Z,13.30
2022-09-11T04:34:14.378Z,13.27
2022-09-11T04:35:14.528Z,13.26
2022-09-11T04:36:14.564Z,13.28
2022-09-11T04:37:14.459Z,13.30
2022-09-11T04:38:14.434Z,13.31
2022-09-11T04:39:14.073Z,13.33
2022-09-11T04:40:14.621Z,13.37
2022-09-11T04:41:14.282Z,13.40
2022-09-11T04:42:14.606Z,13.39
2022-09-11T04:43:14.440Z,13.39
2022-09-11T04:44:14.208Z,13.40
2022-09-11T04:45:14.342Z,13.43
2022-09-11T04:46:14.336Z,13.49
2022-09-11T04:47:14.434Z,13.64
2022-09-11T04:48:14.364Z,13.80
2022-09-11T04:49:15.151Z,13.87
2022-09-11T04:50:14.356Z,13.94
2022-09-11T04:51:14.388Z,13.97
2022-09-11T04:52:14.169Z,14.00
2022-09-11T04:53:14.214Z,14.00
2022-09-11T04:54:15.113Z,14.01
2022-09-11T04:55:14.311Z,14.04
2022-09-11T04:56:14.212Z,14.08
2022-09-11T04:57:14.301Z,14.16
2022-09-11T04:58:14.217Z,14.30
2022-09-11T04:59:14.206Z,14.55
2022-09-11T05:00:14.177Z,14.66
2022-09-11T05:01:14.281Z,14.77
2022-09-11T05:02:14.268Z,14.86
2022-09-11T05:03:14.072Z,14.90
2022-09-11T05:04:14.229Z,14.92
2022-09-11T05:05:14.282Z,14.94
2022-09-11T05:06:14.081Z,14.99
2022-09-11T05:07:13.963Z,15.02
2022-09-11T05:08:13.886Z,15.04
2022-09-11T05:09:14.025Z,15.00
2022-09-11T05:10:14.054Z,14.97
2022-09-11T05:11:13.933Z,14.96
2022-09-11T05:12:13.999Z,14.97
2022-09-11T05:13:14.109Z,15.02
2022-09-11T05:14:14.028Z,15.04
2022-09-11T05:15:14.067Z,15.07
2022-09-11T05:16:14.279Z,15.05
2022-09-11T05:17:13.854Z,15.05
2022-09-11T05:18:13.808Z,15.05
2022-09-11T05:19:13.967Z,15.04
2022-09-11T05:20:13.863Z,15.02
2022-09-11T05:21:13.630Z,15.02
2022-09-11T05:22:13.828Z,14.99
2022-09-11T05:23:13.651Z,14.97
2022-09-11T05:24:13.843Z,14.94
2022-09-11T05:25:14.325Z,14.99
2022-09-11T05:26:14.032Z,15.05
2022-09-11T05:27:13.944Z,15.10
2022-09-11T05:28:13.807Z,15.10
2022-09-11T05:29:21.080Z,15.10
2022-09-11T05:30:20.111Z,15.12
2022-09-11T05:31:20.479Z,15.15
2022-09-11T05:32:13.868Z,15.18
2022-09-11T05:33:13.684Z,15.15
2022-09-11T05:34:13.771Z,15.14
2022-09-11T05:35:13.565Z,15.17
2022-09-11T05:36:13.528Z,15.17
2022-09-11T05:37:13.416Z,15.17
2022-09-11T05:38:13.506Z,15.18
2022-09-11T05:39:14.538Z,15.17
2022-09-11T05:40:14.442Z,15.18
2022-09-11T05:41:13.632Z,15.19
2022-09-11T05:42:13.367Z,15.22
2022-09-11T05:43:13.703Z,15.25
2022-09-11T05:44:13.610Z,15.26
2022-09-11T05:45:13.651Z,15.26
2022-09-11T05:46:13.540Z,15.26
2022-09-11T05:47:13.389Z,15.25
2022-09-11T05:48:13.553Z,15.22
2022-09-11T05:49:13.931Z,15.18
2022-09-11T05:50:13.726Z,15.18
2022-09-11T05:51:13.635Z,15.17
2022-09-11T05:52:13.659Z,15.17
2022-09-11T05:53:13.490Z,15.15
2022-09-11T05:54:13.448Z,15.14
2022-09-11T05:55:13.555Z,15.15
2022-09-11T05:56:13.788Z,15.17
2022-09-11T05:57:13.532Z,15.17
2022-09-11T05:58:13.567Z,15.17
2022-09-11T05:59:13.517Z,15.15
2022-09-11T06:00:13.254Z,15.17
2022-09-11T06:01:13.312Z,15.17
2022-09-11T06:02:13.499Z,15.22
2022-09-11T06:03:15.512Z,15.23
2022-09-11T06:04:13.254Z,15.27
2022-09-11T06:05:13.175Z,15.33
2022-09-11T06:06:13.150Z,15.35
2022-09-11T06:07:13.953Z,15.36
2022-09-11T06:08:13.126Z,15.36
2022-09-11T06:09:13.084Z,15.39
2022-09-11T06:10:13.311Z,15.39
2022-09-11T06:11:13.126Z,15.44
2022-09-11T06:12:13.381Z,15.47
2022-09-11T06:13:13.228Z,15.51
2022-09-11T06:14:13.094Z,15.54
2022-09-11T06:15:30.138Z,15.60
2022-09-11T06:16:17.830Z,15.65
2022-09-11T06:17:12.985Z,15.70
2022-09-11T06:18:13.045Z,15.75
2022-09-11T06:19:13.116Z,15.78
2022-09-11T06:20:12.924Z,15.78
2022-09-11T06:21:13.063Z,15.81
2022-09-11T06:22:13.116Z,15.84
2022-09-11T06:23:12.945Z,15.85
2022-09-11T06:24:13.085Z,15.88
2022-09-11T06:25:12.948Z,15.90
2022-09-11T06:26:13.738Z,15.94
2022-09-11T06:27:13.261Z,15.96
2022-09-11T06:28:12.888Z,15.96
2022-09-11T06:29:12.860Z,15.99
2022-09-11T06:30:13.184Z,16.02
2022-09-11T06:31:12.988Z,16.03
2022-09-11T06:32:12.870Z,16.05
2022-09-11T06:33:12.922Z,16.03
2022-09-11T06:34:13.123Z,16.03
2022-09-11T06:35:12.924Z,16.05
2022-09-11T06:36:13.029Z,16.06
2022-09-11T06:37:12.932Z,16.08
2022-09-11T06:38:12.943Z,16.08
2022-09-11T06:39:13.019Z,16.12
2022-09-11T06:40:12.822Z,16.13
2022-09-11T06:41:12.815Z,16.17
2022-09-11T06:42:12.741Z,16.21
2022-09-11T06:43:13.029Z,16.24
2022-09-11T06:44:12.695Z,16.25
2022-09-11T06:45:12.735Z,16.26
2022-09-11T06:46:12.962Z,16.31
2022-09-11T06:47:13.045Z,16.31
2022-09-11T06:48:12.732Z,16.32
2022-09-11T06:49:12.622Z,16.36
2022-09-11T06:50:12.670Z,16.39
2022-09-11T06:51:12.877Z,16.41
2022-09-11T06:52:13.220Z,16.44
2022-09-11T06:53:12.837Z,16.47
2022-09-11T06:54:12.917Z,16.47
2022-09-11T06:55:12.978Z,16.47
2022-09-11T06:56:12.919Z,16.49
2022-09-11T06:57:12.900Z,16.54
2022-09-11T06:58:12.838Z,16.59
2022-09-11T06:59:12.674Z,16.65
2022-09-11T07:00:12.824Z,16.79
2022-09-11T07:01:13.078Z,16.84
2022-09-11T07:02:13.112Z,16.95
2022-09-11T07:03:12.971Z,17.05
2022-09-11T07:04:12.852Z,17.12
2022-09-11T07:05:12.742Z,17.13
2022-09-11T07:06:12.888Z,17.17
2022-09-11T07:07:12.978Z,17.17
2022-09-11T07:08:12.750Z,17.20
2022-09-11T07:09:12.710Z,17.22
2022-09-11T07:10:12.832Z,17.22
2022-09-11T07:11:12.907Z,17.23
2022-09-11T07:12:12.761Z,17.22
2022-09-11T07:13:12.788Z,17.22
2022-09-11T07:14:12.815Z,17.22
2022-09-11T07:15:12.800Z,17.23
2022-09-11T07:16:12.792Z,17.30
2022-09-11T07:17:13.588Z,17.32
2022-09-11T07:18:12.791Z,17.37
2022-09-11T07:19:14.635Z,17.37
2022-09-11T07:20:12.741Z,17.38
2022-09-11T07:21:12.840Z,17.37
2022-09-11T07:22:12.944Z,17.41
2022-09-11T07:23:12.751Z,17.46
2022-09-11T07:24:12.557Z,17.47
2022-09-11T07:25:12.817Z,17.49
2022-09-11T07:26:12.664Z,17.52
2022-09-11T07:27:12.669Z,17.53
2022-09-11T07:28:12.959Z,17.57
2022-09-11T07:29:12.328Z,17.59
2022-09-11T07:30:12.423Z,17.66
2022-09-11T07:31:12.847Z,17.69
2022-09-11T07:32:12.583Z,17.73
2022-09-11T07:33:12.356Z,17.75
2022-09-11T07:34:12.547Z,17.72
2022-09-11T07:35:12.325Z,17.68
2022-09-11T07:36:12.433Z,17.63
2022-09-11T07:37:12.492Z,17.57
2022-09-11T07:38:12.295Z,17.52
2022-09-11T07:39:12.412Z,17.47
2022-09-11T07:40:12.559Z,17.41
2022-09-11T07:41:12.496Z,17.37
2022-09-11T07:42:12.224Z,17.35
2022-09-11T07:43:12.278Z,17.34
2022-09-11T07:44:12.368Z,17.31
2022-09-11T07:45:12.325Z,17.32
2022-09-11T07:46:12.439Z,17.35
2022-09-11T07:47:12.387Z,17.38
2022-09-11T07:48:12.355Z,17.41
2022-09-11T07:49:12.082Z,17.46
2022-09-11T07:50:12.691Z,17.44
2022-09-11T07:51:11.957Z,17.46
2022-09-11T07:52:16.642Z,17.41
2022-09-11T07:53:12.216Z,17.41
2022-09-11T07:54:12.122Z,17.39
2022-09-11T07:55:12.110Z,17.41
2022-09-11T07:56:12.842Z,17.44
2022-09-11T07:57:11.946Z,17.49
2022-09-11T07:58:12.089Z,17.56
2022-09-11T07:59:11.870Z,17.57
2022-09-11T08:00:11.880Z,17.66
2022-09-11T08:01:12.157Z,17.72
2022-09-11T08:02:11.968Z,17.75
2022-09-11T08:03:12.073Z,17.72
2022-09-11T08:04:12.060Z,17.69
2022-09-11T08:05:12.087Z,17.69
2022-09-11T08:06:11.942Z,17.72
2022-09-11T08:07:12.057Z,17.75
2022-09-11T08:08:11.932Z,17.79
2022-09-11T08:09:11.880Z,17.79
2022-09-11T08:10:26.781Z,17.79
2022-09-11T08:11:11.765Z,17.79
2022-09-11T08:12:11.827Z,17.78
2022-09-11T08:13:11.855Z,17.80
2022-09-11T08:14:11.919Z,17.82
2022-09-11T08:15:11.780Z,17.79
2022-09-11T08:16:12.112Z,17.78
2022-09-11T08:17:12.141Z,17.73
2022-09-11T08:18:12.009Z,17.76
2022-09-11T08:19:12.343Z,17.76
2022-09-11T08:20:11.849Z,17.76
2022-09-11T08:21:13.091Z,17.76
2022-09-11T08:22:12.171Z,17.76
2022-09-11T08:23:11.801Z,17.79
2022-09-11T08:24:11.925Z,17.84
2022-09-11T08:25:11.781Z,17.90
2022-09-11T08:26:11.833Z,18.02
2022-09-11T08:27:11.630Z,18.09
2022-09-11T08:28:11.697Z,18.12
2022-09-11T08:29:11.553Z,18.12
2022-09-11T08:30:11.735Z,18.11
2022-09-11T08:31:12.420Z,18.06
2022-09-11T08:32:11.603Z,18.00
2022-09-11T08:33:11.646Z,18.00
2022-09-11T08:34:11.691Z,17.98
2022-09-11T08:35:11.767Z,17.97
2022-09-11T08:36:11.657Z,17.95
2022-09-11T08:37:11.600Z,17.97
2022-09-11T08:38:12.352Z,17.98
2022-09-11T08:39:11.385Z,18.00
2022-09-11T08:40:11.570Z,17.98
2022-09-11T08:41:11.584Z,17.98
2022-09-11T08:42:11.496Z,17.97
2022-09-11T08:43:11.521Z,18.03
2022-09-11T08:44:11.438Z,18.05
2022-09-11T08:45:11.481Z,18.03
2022-09-11T08:46:12.364Z,18.03
2022-09-11T08:47:11.458Z,18.08
2022-09-11T08:48:12.895Z,18.08
2022-09-11T08:49:11.558Z,18.06
2022-09-11T08:50:11.376Z,18.05
2022-09-11T08:51:11.488Z,18.03
2022-09-11T08:52:11.379Z,18.06
2022-09-11T08:53:12.903Z,18.05
2022-09-11T08:54:13.175Z,18.08
2022-09-11T08:55:11.606Z,18.12
2022-09-11T08:56:11.526Z,18.12
2022-09-11T08:57:11.377Z,18.15
2022-09-11T08:58:11.521Z,18.19
2022-09-11T08:59:11.375Z,18.26
2022-09-11T09:00:11.437Z,18.33
2022-09-11T09:01:11.547Z,18.36
2022-09-11T09:02:11.401Z,18.46
2022-09-11T09:03:11.527Z,18.57
2022-09-11T09:04:11.396Z,18.64
2022-09-11T09:05:11.427Z,18.66
2022-09-11T09:06:12.214Z,18.63
2022-09-11T09:07:11.318Z,18.57
2022-09-11T09:08:11.389Z,18.52
2022-09-11T09:09:11.347Z,18.53
2022-09-11T09:10:11.787Z,18.55
2022-09-11T09:11:11.147Z,18.60
2022-09-11T09:12:11.281Z,18.60
2022-09-11T09:13:11.331Z,18.64
2022-09-11T09:14:11.260Z,18.67
2022-09-11T09:15:11.278Z,18.66
2022-09-11T09:16:11.386Z,18.66
2022-09-11T09:17:11.255Z,18.67
2022-09-11T09:18:11.046Z,18.68
2022-09-11T09:19:11.206Z,18.66
2022-09-11T09:20:11.317Z,18.60
2022-09-11T09:21:11.531Z,18.49
2022-09-11T09:22:11.138Z,18.49
2022-09-11T09:23:11.048Z,18.48
2022-09-11T09:24:11.071Z,18.48
2022-09-11T09:25:11.021Z,18.53
2022-09-11T09:26:10.979Z,18.51
2022-09-11T09:27:10.985Z,18.53
2022-09-11T09:28:11.007Z,18.57
2022-09-11T09:29:11.139Z,18.57
2022-09-11T09:30:10.978Z,18.58
2022-09-11T09:31:10.907Z,18.63
2022-09-11T09:32:11.075Z,18.63
2022-09-11T09:33:13.294Z,18.60
2022-09-11T09:34:11.063Z,18.61
2022-09-11T09:35:10.968Z,18.60
2022-09-11T09:36:10.961Z,18.63
2022-09-11T09:37:10.802Z,18.64
2022-09-11T09:38:10.987Z,18.60
2022-09-11T09:39:10.994Z,18.60
2022-09-11T09:40:11.176Z,18.63
2022-09-11T09:41:10.683Z,18.63
2022-09-11T09:42:10.965Z,18.61
2022-09-11T09:43:10.713Z,18.66
2022-09-11T09:44:10.784Z,18.66
2022-09-11T09:45:10.798Z,18.67
2022-09-11T09:46:11.228Z,18.71
2022-09-11T09:47:10.929Z,18.71
2022-09-11T09:48:10.648Z,18.70
2022-09-11T09:49:10.594Z,18.70
2022-09-11T09:50:10.571Z,18.70
2022-09-11T09:51:10.587Z,18.68
2022-09-11T09:52:10.697Z,18.64
2022-09-11T09:53:10.609Z,18.60
2022-09-11T09:54:10.635Z,18.60
2022-09-11T09:55:10.756Z,18.60
2022-09-11T09:56:10.534Z,18.61
2022-09-11T09:57:10.577Z,18.64
2022-09-11T09:58:10.598Z,18.68
2022-09-11T09:59:10.545Z,18.63
2022-09-11T10:00:10.501Z,18.60
2022-09-11T10:01:10.504Z,18.55
2022-09-11T10:02:10.505Z,18.49
2022-09-11T10:03:10.431Z,18.51
2022-09-11T10:04:10.578Z,18.55
2022-09-11T10:05:10.435Z,18.58
2022-09-11T10:06:10.395Z,18.64
2022-09-11T10:07:10.425Z,18.70
2022-09-11T10:08:10.407Z,18.78
2022-09-11T10:09:10.446Z,18.85
2022-09-11T10:10:10.461Z,18.85
2022-09-11T10:11:10.375Z,18.82
2022-09-11T10:12:10.342Z,18.71
2022-09-11T10:13:22.102Z,18.66
2022-09-11T10:14:13.666Z,18.58
2022-09-11T10:15:10.392Z,18.55
2022-09-11T10:16:10.394Z,18.55
2022-09-11T10:17:10.283Z,18.55
2022-09-11T10:18:10.287Z,18.63
2022-09-11T10:19:10.322Z,18.68
2022-09-11T10:20:10.305Z,18.74
2022-09-11T10:21:10.287Z,18.76
2022-09-11T10:22:10.277Z,18.68
2022-09-11T10:23:10.255Z,18.71
2022-09-11T10:24:10.204Z,18.68
2022-09-11T10:25:10.326Z,18.70
2022-09-11T10:26:10.286Z,18.70
2022-09-11T10:27:10.288Z,18.73
2022-09-11T10:28:10.253Z,18.70
2022-09-11T10:29:10.146Z,18.74
2022-09-11T10:30:10.152Z,18.74
2022-09-11T10:31:10.218Z,18.78
2022-09-11T10:32:10.174Z,18.82
2022-09-11T10:33:10.159Z,18.86
2022-09-11T10:34:10.207Z,18.94
2022-09-11T10:35:10.205Z,18.82
2022-09-11T10:36:10.072Z,18.74
2022-09-11T10:37:10.777Z,18.70
2022-09-11T10:38:10.064Z,18.63
2022-09-11T10:39:10.039Z,18.61
2022-09-11T10:40:10.142Z,18.66
2022-09-11T10:41:10.035Z,18.57
2022-09-11T10:42:10.130Z,18.57
2022-09-11T10:43:10.034Z,18.64
2022-09-11T10:44:09.989Z,18.73
2022-09-11T10:45:09.962Z,18.73
2022-09-11T10:46:10.088Z,18.61
2022-09-11T10:47:09.940Z,18.61
2022-09-11T10:48:10.713Z,18.64
2022-09-11T10:49:09.950Z,18.71
2022-09-11T10:50:09.922Z,18.70
2022-09-11T10:51:09.920Z,18.66
2022-09-11T10:52:09.934Z,18.68
2022-09-11T10:53:10.014Z,18.70
2022-09-11T10:54:09.931Z,18.73
2022-09-11T10:55:09.884Z,18.73
2022-09-11T10:56:09.857Z,18.81
2022-09-11T10:57:09.882Z,18.85
2022-09-11T10:58:09.876Z,18.92
2022-09-11T10:59:10.753Z,18.97
2022-09-11T11:00:09.886Z,18.97
2022-09-11T11:01:09.947Z,18.98
2022-09-11T11:02:09.858Z,19.00
2022-09-11T11:03:09.756Z,19.05
2022-09-11T11:04:12.333Z,19.00
2022-09-11T11:05:09.797Z,18.98
2022-09-11T11:06:09.724Z,18.98
2022-09-11T11:07:09.778Z,19.05
2022-09-11T11:08:10.029Z,19.15
2022-09-11T11:09:09.932Z,19.12
2022-09-11T11:10:09.887Z,19.01
2022-09-11T11:11:09.836Z,18.97
2022-09-11T11:12:09.686Z,19.05
2022-09-11T11:13:09.677Z,19.11
2022-09-11T11:14:09.732Z,19.16
2022-09-11T11:15:09.771Z,19.17
2022-09-11T11:16:09.795Z,19.19
2022-09-11T11:17:09.767Z,19.16
2022-09-11T11:18:09.793Z,19.12
2022-09-11T11:19:09.726Z,19.15
2022-09-11T11:20:09.590Z,19.15
2022-09-11T11:21:09.724Z,19.17
2022-09-11T11:22:09.706Z,19.20
2022-09-11T11:23:14.492Z,19.27
2022-09-11T11:24:09.694Z,19.30
2022-09-11T11:25:09.651Z,19.34
2022-09-11T11:26:09.527Z,19.32
2022-09-11T11:27:09.591Z,19.32
2022-09-11T11:28:09.584Z,19.34
2022-09-11T11:29:09.487Z,19.30
2022-09-11T11:30:09.453Z,19.32
2022-09-11T11:31:09.571Z,19.34
2022-09-11T11:32:09.467Z,19.37
2022-09-11T11:33:09.516Z,19.42
2022-09-11T11:34:09.644Z,19.39
2022-09-11T11:35:09.578Z,19.37
2022-09-11T11:36:09.480Z,19.35
2022-09-11T11:37:09.430Z,19.37
2022-09-11T11:38:09.501Z,19.35
2022-09-11T11:39:09.467Z,19.27
2022-09-11T11:40:09.594Z,19.22
2022-09-11T11:41:09.345Z,19.24
2022-09-11T11:42:09.358Z,19.37
2022-09-11T11:43:09.341Z,19.44
2022-09-11T11:44:09.374Z,19.57
2022-09-11T11:45:09.334Z,19.60
2022-09-11T11:46:09.581Z,19.64
2022-09-11T11:47:09.275Z,19.70
2022-09-11T11:48:09.274Z,19.74
2022-09-11T11:49:09.754Z,19.71
2022-09-11T11:50:10.145Z,19.75
2022-09-11T11:51:09.467Z,19.78
2022-09-11T11:52:09.444Z,19.78
2022-09-11T11:53:09.342Z,19.79
2022-09-11T11:54:09.279Z,19.82
2022-09-11T11:55:09.247Z,19.87
2022-09-11T11:56:09.294Z,19.92
2022-09-11T11:57:09.158Z,19.93
2022-09-11T11:58:09.230Z,19.97
2022-09-11T11:59:09.213Z,20.02
2022-09-11T12:00:09.239Z,20.00
2022-09-11T12:01:09.365Z,20.02
2022-09-11T12:02:09.150Z,20.04
2022-09-11T12:03:09.099Z,20.12
2022-09-11T12:04:09.139Z,20.12
2022-09-11T12:05:09.179Z,20.03
2022-09-11T12:06:09.209Z,20.00
2022-09-11T12:07:09.084Z,20.00
2022-09-11T12:08:09.035Z,19.93
2022-09-11T12:09:09.865Z,20.00
2022-09-11T12:10:09.671Z,20.03
2022-09-11T12:11:09.085Z,20.11
2022-09-11T12:12:09.121Z,20.12
2022-09-11T12:13:08.990Z,20.19
2022-09-11T12:14:08.969Z,20.29
2022-09-11T12:15:09.089Z,20.36
2022-09-11T12:16:11.293Z,20.44
2022-09-11T12:17:08.979Z,20.49
2022-09-11T12:18:08.991Z,20.55
2022-09-11T12:19:08.929Z,20.37
2022-09-11T12:20:08.939Z,20.27
2022-09-11T12:21:08.895Z,20.27
2022-09-11T12:22:08.958Z,20.27
2022-09-11T12:23:09.001Z,20.30
2022-09-11T12:24:09.222Z,20.30
2022-09-11T12:25:09.266Z,20.29
2022-09-11T12:26:09.234Z,20.34
2022-09-11T12:27:11.811Z,20.44
2022-09-11T12:28:09.920Z,20.56
2022-09-11T12:29:16.277Z,20.77
2022-09-11T12:30:08.927Z,21.05
2022-09-11T12:31:10.087Z,21.45
2022-09-11T12:32:09.219Z,22.16
2022-09-11T12:33:10.033Z,23.04
2022-09-11T12:34:09.101Z,23.40
2022-09-11T12:35:09.131Z,23.82
2022-09-11T12:36:09.020Z,24.48
2022-09-11T12:37:08.971Z,24.92
2022-09-11T12:38:08.848Z,25.21
2022-09-11T12:39:09.003Z,25.67
2022-09-11T12:40:08.987Z,26.07
2022-09-11T12:41:08.743Z,26.36
2022-09-11T12:42:08.879Z,26.73
2022-09-11T12:43:09.299Z,26.76
2022-09-11T12:44:08.707Z,27.18
2022-09-11T12:45:08.683Z,27.68
2022-09-11T12:46:09.033Z,28.33
2022-09-11T12:47:08.712Z,28.65
2022-09-11T12:48:08.758Z,28.92
2022-09-11T12:49:22.038Z,29.30
2022-09-11T12:50:08.788Z,29.57
2022-09-11T12:51:08.799Z,29.95
2022-09-11T12:52:09.044Z,29.62